Time;durP1;ratioP1;P1;durP2;ratioP2;P2;SDS_P1;SDS_P2;PMS_P1;PMS_P2;Temp;Humidity;BMP_temperature;BMP_pressure;BME280_temperature;BME280_humidity;BME280_pressure;Samples;Min_cycle;Max_cycle;Signal;HPM_P1;HPM_P2
2023/02/12 00:01:16;;;;;;;0.70;0.70;;;18.10;43.50;;;;;;5032330;28;20258;-67
2023/02/12 00:03:43;;;;;;;0.80;0.75;;;18.10;43.50;;;;;;5032344;28;20204;-67
2023/02/12 00:06:12;;;;;;;1.20;0.77;;;18.10;43.50;;;;;;5032320;28;20192;-67
2023/02/12 00:08:40;;;;;;;0.82;0.80;;;18.10;43.50;;;;;;5032373;28;20196;-67
2023/02/12 00:11:11;;;;;;;0.80;0.80;;;18.10;43.50;;;;;;5032260;28;20286;-67
2023/02/12 00:13:38;;;;;;;1.10;1.00;;;18.10;43.50;;;;;;5032341;28;20188;-67
2023/02/12 00:16:07;;;;;;;1.10;0.90;;;18.10;43.50;;;;;;5031704;28;20274;-67
2023/02/12 00:18:35;;;;;;;0.70;0.60;;;18.00;43.40;;;;;;5031954;28;20196;-67
2023/02/12 00:21:02;;;;;;;0.77;0.77;;;18.10;43.50;;;;;;5032345;28;20551;-67
2023/02/12 00:23:29;;;;;;;1.90;0.80;;;18.10;43.50;;;;;;5032202;28;20246;-67
2023/02/12 00:25:56;;;;;;;0.80;0.80;;;18.10;43.50;;;;;;5032077;28;20279;-67
2023/02/12 00:28:26;;;;;;;0.85;0.82;;;18.00;43.40;;;;;;5032138;28;20219;-67
2023/02/12 00:30:53;;;;;;;0.68;0.68;;;18.10;43.50;;;;;;5032153;28;20243;-67
2023/02/12 00:33:20;;;;;;;1.25;0.80;;;18.00;43.40;;;;;;5031835;28;20189;-68
2023/02/12 00:35:56;;;;;;;0.90;0.80;;;18.00;43.40;;;;;;5031366;28;20639;-67
2023/02/12 00:38:23;;;;;;;1.02;0.90;;;18.00;43.50;;;;;;5014247;28;20207;-67
2023/02/12 00:40:50;;;;;;;0.70;0.70;;;18.00;43.40;;;;;;5032208;28;20217;-67
2023/02/12 00:43:17;;;;;;;0.70;0.70;;;18.00;43.40;;;;;;5032007;28;20188;-67
2023/02/12 00:45:47;;;;;;;0.98;0.88;;;18.00;43.50;;;;;;5031958;28;20262;-67
2023/02/12 00:48:15;;;;;;;0.75;0.75;;;18.00;43.50;;;;;;5031615;28;20189;-67
2023/02/12 00:50:45;;;;;;;0.82;0.80;;;18.00;43.50;;;;;;5014605;28;20232;-67
2023/02/12 00:53:12;;;;;;;0.80;0.80;;;18.00;43.50;;;;;;5032001;28;20238;-67
2023/02/12 00:55:39;;;;;;;0.70;0.70;;;18.00;43.50;;;;;;5031207;28;20635;-67
2023/02/12 00:58:07;;;;;;;0.60;0.60;;;18.00;43.50;;;;;;5031809;28;20259;-67
2023/02/12 01:00:34;;;;;;;0.90;0.90;;;18.00;43.50;;;;;;5031899;28;20223;-67
2023/02/12 01:03:04;;;;;;;1.20;0.77;;;17.90;43.40;;;;;;5031738;28;20189;-67
2023/02/12 01:05:32;;;;;;;0.68;0.68;;;18.00;43.50;;;;;;5032205;28;20274;-67
2023/02/12 01:07:59;;;;;;;0.70;0.70;;;18.00;43.50;;;;;;5033032;28;20197;-67
2023/02/12 01:10:26;;;;;;;0.80;0.80;;;18.00;43.50;;;;;;5034977;28;20639;-67
2023/02/12 01:12:53;;;;;;;0.70;0.63;;;18.00;43.50;;;;;;5035240;28;20188;-67
2023/02/12 01:15:21;;;;;;;0.68;0.68;;;17.90;43.40;;;;;;5035013;28;20208;-67
2023/02/12 01:17:48;;;;;;;0.70;0.70;;;18.00;43.50;;;;;;5035029;28;20235;-67
2023/02/12 01:20:21;;;;;;;0.80;0.73;;;17.90;43.40;;;;;;5034962;28;20263;-67
2023/02/12 01:22:49;;;;;;;0.60;0.60;;;18.00;43.50;;;;;;5035012;28;20185;-67
2023/02/12 01:25:17;;;;;;;0.93;0.85;;;17.90;43.40;;;;;;5034828;28;20840;-67
2023/02/12 01:27:44;;;;;;;0.88;0.88;;;18.00;43.50;;;;;;5034911;28;20255;-67
2023/02/12 01:30:13;;;;;;;0.68;0.68;;;17.90;43.50;;;;;;5034985;28;20266;-67
2023/02/12 01:32:40;;;;;;;0.80;0.80;;;17.90;43.50;;;;;;5034565;28;20223;-67
2023/02/12 01:35:10;;;;;;;0.77;0.77;;;18.00;43.50;;;;;;5034134;28;20274;-67
2023/02/12 01:37:38;;;;;;;0.85;0.82;;;17.90;43.50;;;;;;5034492;28;20193;-67
2023/02/12 01:40:08;;;;;;;1.63;0.80;;;17.90;43.50;;;;;;5034575;28;20267;-67
2023/02/12 01:42:36;;;;;;;0.85;0.80;;;17.90;43.50;;;;;;5034672;28;20193;-67
2023/02/12 01:45:52;;;;;;;1.00;0.80;;;17.90;43.50;;;;;;5034764;28;20217;-67
2023/02/12 01:48:23;;;;;;;1.08;0.98;;;17.90;43.50;;;;;;4992685;28;20660;-67
2023/02/12 01:50:53;;;;;;;0.90;0.90;;;17.90;43.50;;;;;;4992627;28;20340;-67
2023/02/12 01:53:24;;;;;;;0.93;0.90;;;17.90;43.50;;;;;;4992877;28;20190;-67
2023/02/12 01:55:56;;;;;;;0.80;0.80;;;17.90;43.50;;;;;;4992246;28;20221;-67
2023/02/12 01:58:25;;;;;;;0.85;0.77;;;17.90;43.60;;;;;;4992437;28;20241;-67
2023/02/12 02:00:52;;;;;;;1.02;0.93;;;17.90;43.50;;;;;;4992413;28;20597;-67
2023/02/12 02:03:20;;;;;;;1.17;1.08;;;17.90;43.50;;;;;;4992775;28;20202;-67
2023/02/12 02:05:53;;;;;;;1.42;1.08;;;17.90;43.50;;;;;;4992778;28;20710;-67
2023/02/12 02:08:23;;;;;;;1.00;0.90;;;17.90;43.50;;;;;;4976216;28;20194;-67
2023/02/12 02:10:50;;;;;;;1.30;0.90;;;17.90;43.60;;;;;;4991762;28;20265;-67
2023/02/12 02:16:08;;;;;;;1.13;1.00;;;17.80;43.50;;;;;;4992118;28;20315;-67
2023/02/12 02:18:43;;;;;;;1.20;1.10;;;17.80;43.50;;;;;;4976032;28;20249;-67
2023/02/12 02:21:34;;;;;;;1.10;1.00;;;17.90;43.60;;;;;;4995528;28;20221;-67
2023/02/12 02:24:40;;;;;;;1.52;1.13;;;17.80;43.50;;;;;;5031923;28;20250;-67
2023/02/12 02:27:20;;;;;;;1.15;1.05;;;17.80;43.60;;;;;;5034104;28;20196;-67
2023/02/12 02:30:39;;;;;;;1.38;1.27;;;17.80;43.60;;;;;;5033397;28;20228;-67
2023/02/12 02:33:32;;;;;;;1.50;1.13;;;17.80;43.60;;;;;;5012809;28;20208;-67
2023/02/12 02:36:13;;;;;;;1.67;1.30;;;17.80;43.60;;;;;;5032980;28;20212;-67
2023/02/12 02:38:48;;;;;;;1.75;1.30;;;17.80;43.60;;;;;;5033507;28;20670;-67
2023/02/12 02:41:21;;;;;;;1.50;1.30;;;17.80;43.60;;;;;;5033361;28;20224;-67
2023/02/12 02:43:50;;;;;;;2.17;1.33;;;17.80;43.60;;;;;;5033377;28;20284;-67
2023/02/12 02:46:23;;;;;;;1.58;1.42;;;17.80;43.70;;;;;;5033333;28;20637;-67
2023/02/12 02:48:56;;;;;;;1.42;1.30;;;17.80;44.30;;;;;;5033147;28;20250;-67
2023/02/12 02:51:29;;;;;;;1.60;1.40;;;17.80;43.70;;;;;;5033534;28;20228;-67
2023/02/12 02:54:03;;;;;;;1.85;1.50;;;17.80;43.70;;;;;;5033360;28;20601;-67
2023/02/12 02:56:32;;;;;;;1.67;1.58;;;17.80;43.70;;;;;;5032990;28;20643;-67
2023/02/12 02:59:04;;;;;;;2.15;1.58;;;17.80;43.70;;;;;;5033312;28;20251;-67
2023/02/12 03:01:35;;;;;;;1.90;1.60;;;17.80;43.70;;;;;;5033347;28;20298;-67
2023/02/12 03:04:08;;;;;;;2.50;1.85;;;17.80;43.70;;;;;;5033196;28;20576;-67
2023/02/12 03:06:41;;;;;;;1.92;1.67;;;17.80;43.70;;;;;;5015474;28;20220;-67
2023/02/12 03:09:16;;;;;;;2.03;1.83;;;17.80;43.70;;;;;;5032772;28;20210;-67
2023/02/12 03:11:44;;;;;;;2.83;2.00;;;17.80;43.70;;;;;;5032973;28;20290;-67
2023/02/12 03:14:16;;;;;;;2.22;2.00;;;17.80;43.70;;;;;;5032706;28;20654;-67
2023/02/12 03:16:50;;;;;;;3.67;2.17;;;17.80;43.70;;;;;;5014964;28;20259;-67
2023/02/12 03:19:21;;;;;;;4.00;2.08;;;17.80;43.70;;;;;;5032579;28;20720;-67
2023/02/12 03:21:52;;;;;;;3.25;2.53;;;17.70;43.70;;;;;;5032563;28;20720;-67
2023/02/12 03:24:26;;;;;;;2.92;2.45;;;17.80;43.80;;;;;;5032777;28;20192;-67
2023/02/12 03:26:59;;;;;;;3.85;2.50;;;17.80;43.80;;;;;;5032940;28;20270;-67
2023/02/12 03:29:27;;;;;;;3.28;2.55;;;17.70;43.70;;;;;;5015446;28;20181;-67
2023/02/12 03:32:05;;;;;;;3.10;2.40;;;17.70;43.70;;;;;;5031740;28;20265;-67
2023/02/12 03:34:46;;;;;;;3.65;2.80;;;17.80;43.80;;;;;;5032331;28;20605;-67
2023/02/12 03:37:18;;;;;;;3.22;2.90;;;17.70;43.70;;;;;;5032671;28;20197;-67
2023/02/12 03:39:55;;;;;;;4.05;3.03;;;17.70;43.80;;;;;;5032088;28;20624;-67
2023/02/12 03:42:32;;;;;;;4.53;2.75;;;17.70;43.80;;;;;;5032512;28;20270;-67
2023/02/12 03:45:04;;;;;;;4.10;2.63;;;17.70;43.80;;;;;;5032617;28;20216;-67
2023/02/12 03:47:41;;;;;;;3.78;2.70;;;17.70;43.80;;;;;;5032738;28;20223;-67
2023/02/12 03:50:17;;;;;;;3.88;3.00;;;17.70;43.80;;;;;;5032246;28;20260;-67
2023/02/12 03:52:45;;;;;;;3.63;2.80;;;17.70;43.90;;;;;;4981783;28;20223;-67
2023/02/12 03:55:13;;;;;;;4.47;3.05;;;17.70;43.80;;;;;;5032443;28;20297;-67
2023/02/12 03:57:44;;;;;;;4.15;3.13;;;17.70;43.90;;;;;;5032110;28;20185;-67
2023/02/12 04:00:15;;;;;;;4.28;3.17;;;17.70;43.90;;;;;;5032140;28;20273;-67
2023/02/12 04:02:43;;;;;;;4.05;3.03;;;17.70;43.90;;;;;;5032321;28;20655;-67
2023/02/12 04:05:21;;;;;;;4.38;3.50;;;17.70;43.90;;;;;;5032386;28;20277;-67
2023/02/12 04:07:49;;;;;;;3.85;2.75;;;17.70;44.00;;;;;;5025627;28;20250;-67
2023/02/12 04:10:18;;;;;;;5.30;3.00;;;17.70;44.00;;;;;;5025969;28;20290;-67
2023/02/12 04:12:54;;;;;;;4.40;2.90;;;17.70;44.00;;;;;;5032231;28;20231;-67
2023/02/12 04:15:37;;;;;;;4.40;3.03;;;17.70;44.00;;;;;;5023847;28;20224;-67
2023/02/12 04:18:10;;;;;;;4.70;3.10;;;17.70;44.00;;;;;;5012199;28;20239;-67
2023/02/12 04:20:50;;;;;;;4.10;3.20;;;17.70;44.00;;;;;;5012516;28;20221;-67
2023/02/12 04:23:34;;;;;;;4.32;3.45;;;17.70;44.00;;;;;;5012170;28;20201;-67
2023/02/12 04:26:09;;;;;;;4.50;3.35;;;17.70;44.00;;;;;;5012490;28;20267;-67
2023/02/12 04:28:46;;;;;;;4.25;3.35;;;17.70;44.00;;;;;;5012145;28;20247;-67
2023/02/12 04:31:22;;;;;;;3.47;2.85;;;17.70;44.00;;;;;;5030143;28;20216;-67
2023/02/12 04:34:00;;;;;;;4.72;3.08;;;17.60;44.00;;;;;;5032117;28;20192;-67
2023/02/12 04:36:34;;;;;;;4.85;3.15;;;17.60;44.00;;;;;;5032236;28;20270;-67
2023/02/12 04:39:05;;;;;;;4.00;3.20;;;17.60;44.00;;;;;;5032055;28;20230;-67
2023/02/12 04:41:32;;;;;;;5.20;3.50;;;17.60;44.00;;;;;;5031962;28;20220;-67
2023/02/12 04:44:14;;;;;;;4.75;3.47;;;17.60;44.00;;;;;;5034641;28;20189;-67
2023/02/12 04:46:41;;;;;;;5.03;3.20;;;17.70;44.10;;;;;;5035809;28;20216;-67
2023/02/12 04:49:14;;;;;;;4.88;3.40;;;17.70;44.10;;;;;;5035328;28;21855;-67
2023/02/12 04:51:43;;;;;;;3.53;2.95;;;17.70;44.10;;;;;;5035444;28;20258;-67
2023/02/12 04:54:10;;;;;;;5.00;3.28;;;17.70;44.10;;;;;;5035699;28;20184;-67
2023/02/12 04:56:38;;;;;;;3.75;3.10;;;17.60;44.10;;;;;;5035474;28;20632;-67
2023/02/12 04:59:05;;;;;;;3.90;2.90;;;17.60;44.00;;;;;;5035476;28;20614;-67
2023/02/12 05:01:34;;;;;;;4.47;2.97;;;17.60;44.00;;;;;;5035597;28;20693;-67
2023/02/12 05:04:01;;;;;;;5.20;3.65;;;17.60;44.00;;;;;;5035518;28;20188;-67
2023/02/12 05:06:29;;;;;;;4.22;3.00;;;17.60;44.00;;;;;;5035540;28;20267;-68
2023/02/12 05:08:58;;;;;;;4.05;3.03;;;17.60;44.10;;;;;;5034774;28;20287;-67
2023/02/12 05:11:25;;;;;;;3.55;2.88;;;17.60;44.10;;;;;;5035305;28;20224;-67
2023/02/12 05:13:53;;;;;;;5.82;3.53;;;17.60;44.10;;;;;;5035332;28;20188;-67
2023/02/12 05:16:21;;;;;;;4.20;2.97;;;17.60;44.10;;;;;;5034629;28;20706;-67
2023/02/12 05:18:49;;;;;;;4.97;3.45;;;17.60;44.10;;;;;;5035172;28;20250;-67
2023/02/12 05:21:16;;;;;;;4.55;3.05;;;17.60;44.10;;;;;;5034925;28;20212;-67
2023/02/12 05:23:44;;;;;;;3.45;2.90;;;17.60;44.20;;;;;;5035143;28;20188;-67
2023/02/12 05:26:15;;;;;;;3.50;2.95;;;17.60;44.10;;;;;;5035186;28;20267;-67
2023/02/12 05:28:42;;;;;;;4.35;3.22;;;17.60;44.10;;;;;;5035062;28;20188;-67
2023/02/12 05:31:12;;;;;;;4.63;3.20;;;17.60;44.10;;;;;;5034328;28;20228;-67
2023/02/12 05:33:42;;;;;;;4.05;2.63;;;17.60;44.20;;;;;;5034498;28;20823;-67
2023/02/12 05:36:12;;;;;;;4.57;3.20;;;17.60;44.20;;;;;;5034783;28;20698;-67
2023/02/12 05:38:40;;;;;;;4.22;2.78;;;17.60;44.20;;;;;;5034779;28;20185;-67
2023/02/12 05:41:09;;;;;;;4.32;3.05;;;17.60;44.30;;;;;;5034397;28;20266;-67
2023/02/12 05:43:38;;;;;;;2.90;2.25;;;17.60;44.10;;;;;;5034490;28;20193;-67
2023/02/12 05:46:07;;;;;;;3.47;2.75;;;17.60;44.20;;;;;;5034463;28;20278;-67
2023/02/12 05:48:35;;;;;;;3.63;2.30;;;17.60;44.20;;;;;;5034298;28;20193;-67
2023/02/12 05:51:03;;;;;;;3.83;2.63;;;17.60;44.20;;;;;;5019114;28;20697;-67
2023/02/12 05:53:31;;;;;;;3.83;2.90;;;17.50;44.00;;;;;;5034051;28;20698;-67
2023/02/12 05:56:11;;;;;;;3.22;2.60;;;17.60;44.10;;;;;;5033765;28;20216;-67
2023/02/12 05:58:41;;;;;;;3.25;2.35;;;17.60;44.20;;;;;;5034420;28;20188;-67
2023/02/12 06:01:14;;;;;;;3.67;2.70;;;17.60;44.10;;;;;;5034459;28;20278;-67
2023/02/12 06:03:41;;;;;;;4.18;2.40;;;17.60;44.20;;;;;;5034139;28;20192;-67
2023/02/12 06:06:08;;;;;;;3.58;2.50;;;17.50;44.10;;;;;;5034414;28;20216;-67
2023/02/12 06:08:36;;;;;;;3.78;2.70;;;17.50;44.10;;;;;;5033904;28;20612;-67
2023/02/12 06:11:05;;;;;;;2.78;2.35;;;17.50;44.00;;;;;;5034164;28;20286;-67
2023/02/12 06:13:33;;;;;;;3.42;2.63;;;17.50;44.10;;;;;;5034123;28;20269;-67
2023/02/12 06:16:01;;;;;;;3.35;2.20;;;17.50;44.10;;;;;;5033834;28;20286;-67
2023/02/12 06:18:29;;;;;;;2.85;2.35;;;17.50;44.10;;;;;;5034079;28;20196;-67
2023/02/12 06:20:56;;;;;;;3.25;2.55;;;17.50;44.10;;;;;;5034088;28;20220;-67
2023/02/12 06:23:24;;;;;;;3.25;2.63;;;17.50;44.10;;;;;;5034053;28;20227;-67
2023/02/12 06:25:56;;;;;;;2.85;2.55;;;17.50;44.10;;;;;;5034119;28;20220;-67
2023/02/12 06:28:23;;;;;;;2.88;2.50;;;17.50;44.10;;;;;;5033410;28;20192;-67
2023/02/12 06:30:51;;;;;;;2.90;2.13;;;17.50;44.10;;;;;;5033965;28;20295;-68
2023/02/12 06:33:20;;;;;;;2.95;2.33;;;17.50;44.10;;;;;;5033791;28;20328;-67
2023/02/12 06:35:47;;;;;;;3.08;2.40;;;17.50;44.10;;;;;;5033825;28;20220;-67
2023/02/12 06:38:14;;;;;;;3.80;2.72;;;17.50;44.10;;;;;;5033392;28;20188;-67
2023/02/12 06:40:42;;;;;;;3.25;2.42;;;17.50;44.10;;;;;;5033306;28;20820;-67
2023/02/12 06:43:09;;;;;;;3.25;2.40;;;17.50;44.10;;;;;;5033324;28;20193;-67
2023/02/12 06:45:36;;;;;;;3.30;2.58;;;17.50;44.10;;;;;;5033233;28;20236;-67
2023/02/12 06:48:03;;;;;;;2.65;2.45;;;17.50;44.10;;;;;;5033533;28;20642;-67
2023/02/12 06:50:33;;;;;;;2.83;2.17;;;17.50;44.10;;;;;;5033019;28;20220;-67
2023/02/12 06:53:00;;;;;;;3.67;2.25;;;17.50;44.10;;;;;;5033037;28;20216;-67
2023/02/12 06:55:28;;;;;;;2.83;2.13;;;17.50;44.10;;;;;;5033237;28;20623;-68
2023/02/12 06:57:55;;;;;;;3.08;2.50;;;17.50;44.10;;;;;;5033299;28;20189;-67
2023/02/12 07:00:23;;;;;;;3.13;2.53;;;17.50;44.00;;;;;;5033244;28;20702;-67
2023/02/12 07:02:54;;;;;;;3.13;2.40;;;17.50;44.00;;;;;;5015724;28;20189;-67
2023/02/12 07:05:22;;;;;;;3.78;2.60;;;17.50;44.10;;;;;;5033011;28;20224;-67
2023/02/12 07:07:51;;;;;;;2.97;2.45;;;17.50;44.10;;;;;;5033098;28;20604;-67
2023/02/12 07:10:19;;;;;;;2.95;2.40;;;17.50;44.10;;;;;;5032291;28;20209;-67
2023/02/12 07:12:47;;;;;;;3.00;2.40;;;17.50;44.10;;;;;;5032676;28;20247;-67
2023/02/12 07:15:14;;;;;;;3.20;2.50;;;17.50;44.00;;;;;;5032884;28;20193;-67
2023/02/12 07:17:41;;;;;;;3.25;2.60;;;17.50;44.10;;;;;;5032517;28;20278;-67
2023/02/12 07:20:09;;;;;;;3.65;2.85;;;17.50;44.00;;;;;;5033085;28;20242;-67
2023/02/12 07:22:37;;;;;;;2.80;2.45;;;17.40;44.00;;;;;;5032889;28;20201;-67
2023/02/12 07:25:06;;;;;;;3.03;2.50;;;17.50;44.10;;;;;;5032594;28;20211;-67
2023/02/12 07:27:37;;;;;;;3.15;2.60;;;17.40;44.00;;;;;;5015331;28;20196;-67
2023/02/12 07:30:05;;;;;;;3.08;2.50;;;17.50;44.10;;;;;;5032283;28;20188;-67
2023/02/12 07:32:33;;;;;;;2.95;2.20;;;17.50;44.10;;;;;;5032529;28;20216;-67
2023/02/12 07:35:00;;;;;;;3.30;2.50;;;17.40;44.00;;;;;;5032397;28;20642;-67
2023/02/12 07:37:28;;;;;;;3.42;2.60;;;17.40;44.00;;;;;;5032582;28;20217;-67
2023/02/12 07:39:55;;;;;;;3.13;2.33;;;17.40;44.00;;;;;;5032684;28;20605;-67
2023/02/12 07:42:24;;;;;;;3.05;2.40;;;17.40;44.00;;;;;;5031949;28;20224;-67
2023/02/12 07:44:51;;;;;;;3.10;2.70;;;17.40;44.70;;;;;;5032211;28;20608;-67
2023/02/12 07:47:18;;;;;;;3.92;2.50;;;17.40;44.00;;;;;;5032519;28;20285;-67
2023/02/12 07:49:45;;;;;;;2.88;2.30;;;17.40;44.00;;;;;;5032005;28;20658;-67
2023/02/12 07:52:12;;;;;;;3.92;2.63;;;17.40;44.00;;;;;;5032712;28;20224;-67
2023/02/12 07:54:39;;;;;;;2.88;2.58;;;17.40;44.00;;;;;;5032443;28;20220;-67
2023/02/12 07:57:06;;;;;;;2.75;2.35;;;17.40;44.00;;;;;;5033188;28;20278;-67
2023/02/12 07:59:35;;;;;;;3.25;2.70;;;17.40;44.00;;;;;;5032379;28;20192;-67
2023/02/12 08:02:02;;;;;;;3.28;2.80;;;17.40;44.00;;;;;;5032435;28;20278;-67
2023/02/12 08:04:29;;;;;;;3.00;2.60;;;17.40;44.00;;;;;;5032050;28;20712;-67
2023/02/12 08:06:57;;;;;;;3.72;2.20;;;17.40;44.00;;;;;;5032205;28;20554;-67
2023/02/12 08:09:26;;;;;;;3.22;2.60;;;17.40;44.00;;;;;;5031933;28;20210;-67
2023/02/12 08:11:54;;;;;;;3.80;2.72;;;17.40;44.00;;;;;;5032173;28;20282;-67
2023/02/12 08:14:22;;;;;;;3.92;2.60;;;17.40;44.00;;;;;;5031898;28;20216;-67
2023/02/12 08:16:51;;;;;;;3.83;2.65;;;17.40;44.00;;;;;;5014655;28;20281;-67
2023/02/12 08:19:18;;;;;;;3.20;2.63;;;17.40;44.00;;;;;;5036095;28;20196;-67
2023/02/12 08:21:46;;;;;;;3.10;2.40;;;17.40;44.00;;;;;;5036451;28;20220;-67
2023/02/12 08:24:14;;;;;;;3.13;2.30;;;17.40;44.00;;;;;;5018741;28;20203;-67
2023/02/12 08:26:41;;;;;;;5.45;2.75;;;17.40;44.00;;;;;;5036044;28;20270;-67
2023/02/12 08:29:11;;;;;;;3.50;2.40;;;17.40;44.00;;;;;;5035810;28;20185;-67
2023/02/12 08:31:40;;;;;;;3.35;2.63;;;17.40;44.00;;;;;;5036001;28;20278;-67
2023/02/12 08:34:16;;;;;;;3.08;2.40;;;17.30;44.50;;;;;;5035970;28;20282;-67
2023/02/12 08:36:44;;;;;;;3.60;2.63;;;17.40;44.00;;;;;;5035759;28;20220;-67
2023/02/12 08:39:11;;;;;;;2.97;2.20;;;17.30;43.90;;;;;;5035718;28;20222;-67
2023/02/12 08:41:41;;;;;;;3.85;2.60;;;17.40;44.00;;;;;;5035960;28;20216;-67
2023/02/12 08:44:08;;;;;;;2.83;2.45;;;17.40;44.00;;;;;;5035564;28;20674;-67
2023/02/12 08:46:38;;;;;;;3.80;2.85;;;17.40;44.00;;;;;;5018146;28;20244;-67
2023/02/12 08:49:08;;;;;;;3.80;2.60;;;17.30;43.90;;;;;;5035437;28;20254;-67
2023/02/12 08:51:39;;;;;;;3.20;2.60;;;17.30;43.90;;;;;;5032986;28;20219;-67
2023/02/12 08:54:10;;;;;;;2.80;2.40;;;17.30;44.00;;;;;;5035340;28;20219;-67
2023/02/12 08:56:37;;;;;;;3.72;2.45;;;17.40;44.00;;;;;;5035464;28;20726;-67
2023/02/12 08:59:06;;;;;;;3.40;2.70;;;17.40;44.00;;;;;;5035549;28;20193;-67
2023/02/12 09:01:37;;;;;;;3.67;2.67;;;17.30;43.90;;;;;;5035227;28;20764;-67
2023/02/12 09:04:05;;;;;;;3.05;2.35;;;17.30;43.90;;;;;;5035469;28;20188;-67
2023/02/12 09:06:34;;;;;;;2.92;2.40;;;17.30;44.00;;;;;;5035454;28;20267;-67
2023/02/12 09:09:03;;;;;;;2.92;2.40;;;17.30;44.00;;;;;;5035147;28;20242;-67
2023/02/12 09:11:30;;;;;;;2.83;2.17;;;17.30;44.00;;;;;;5034873;28;20738;-67
2023/02/12 09:13:59;;;;;;;3.97;2.83;;;17.30;44.00;;;;;;5035267;28;20396;-67
2023/02/12 09:16:29;;;;;;;3.47;2.67;;;17.30;43.90;;;;;;5013911;28;20652;-67
2023/02/12 09:18:57;;;;;;;3.53;2.65;;;17.30;43.90;;;;;;5015737;28;20202;-67
2023/02/12 09:21:24;;;;;;;4.03;2.80;;;17.30;43.90;;;;;;5015272;28;20691;-68
2023/02/12 09:23:52;;;;;;;3.92;2.97;;;17.30;44.30;;;;;;5015050;28;20729;-67
2023/02/12 09:26:24;;;;;;;3.55;2.45;;;17.30;43.90;;;;;;5015831;28;20221;-67
2023/02/12 09:28:52;;;;;;;4.30;2.90;;;17.30;43.90;;;;;;5015118;28;20229;-67
2023/02/12 09:31:24;;;;;;;3.50;2.72;;;17.30;44.00;;;;;;5014797;28;20225;-67
2023/02/12 09:33:52;;;;;;;4.03;2.78;;;17.30;43.90;;;;;;5015114;28;20283;-67
2023/02/12 09:36:19;;;;;;;4.10;3.30;;;17.30;44.00;;;;;;5015166;28;20217;-67
2023/02/12 09:38:47;;;;;;;3.70;2.80;;;17.30;43.90;;;;;;5015167;28;20544;-67
2023/02/12 09:42:04;;;;;;;3.72;2.85;;;17.30;44.00;;;;;;5015027;28;20221;-67
2023/02/12 09:44:42;;;;;;;3.63;2.88;;;17.30;43.90;;;;;;5013879;28;20205;-67
2023/02/12 09:47:17;;;;;;;5.47;3.00;;;17.30;44.00;;;;;;5014944;28;20217;-67
2023/02/12 09:50:04;;;;;;;3.67;3.05;;;17.30;43.90;;;;;;5014365;28;20655;-67
2023/02/12 09:52:31;;;;;;;4.32;3.13;;;17.20;43.80;;;;;;5015012;28;20224;-67
2023/02/12 09:54:59;;;;;;;4.72;3.10;;;17.30;43.90;;;;;;5015011;28;20241;-67
2023/02/12 09:57:32;;;;;;;4.88;3.10;;;17.20;43.90;;;;;;5014604;28;20217;-67
2023/02/12 10:00:05;;;;;;;4.15;2.95;;;17.30;44.00;;;;;;5014669;28;20194;-67
2023/02/12 10:02:35;;;;;;;4.28;3.13;;;17.30;44.00;;;;;;5014425;28;20781;-67
2023/02/12 10:05:03;;;;;;;4.82;3.20;;;17.30;44.00;;;;;;5014824;28;20197;-67
2023/02/12 10:07:42;;;;;;;4.20;3.42;;;17.30;44.00;;;;;;5014762;28;20221;-67
2023/02/12 10:10:23;;;;;;;4.43;3.25;;;17.20;43.90;;;;;;5012822;28;20181;-67
2023/02/12 10:12:55;;;;;;;5.07;3.65;;;17.30;44.00;;;;;;5014057;28;20217;-67
2023/02/12 10:15:35;;;;;;;4.35;3.33;;;17.30;44.00;;;;;;5014065;28;20275;-67
2023/02/12 10:18:31;;;;;;;4.38;3.20;;;17.20;43.90;;;;;;4994497;28;20666;-67
2023/02/12 10:21:10;;;;;;;4.10;3.05;;;17.20;43.90;;;;;;4984226;28;20241;-67
2023/02/12 10:24:15;;;;;;;4.32;3.35;;;17.20;43.90;;;;;;4994406;28;20652;-67
2023/02/12 10:26:46;;;;;;;4.50;3.35;;;17.20;43.90;;;;;;4988964;28;20225;-67
2023/02/12 10:29:17;;;;;;;7.32;3.80;;;17.30;44.00;;;;;;4994219;28;20218;-67
2023/02/12 10:31:49;;;;;;;4.70;3.42;;;17.20;43.90;;;;;;4994299;28;20277;-67
2023/02/12 10:34:19;;;;;;;4.60;3.35;;;17.20;43.90;;;;;;4994397;28;20689;-67
2023/02/12 10:36:49;;;;;;;5.07;3.60;;;17.20;43.90;;;;;;4993986;28;20217;-67
2023/02/12 10:39:22;;;;;;;5.18;3.45;;;17.20;43.90;;;;;;4994309;28;20190;-67
2023/02/12 10:41:55;;;;;;;6.10;3.08;;;17.30;44.00;;;;;;4994090;28;20241;-67
2023/02/12 10:44:22;;;;;;;4.03;3.05;;;17.20;44.00;;;;;;4994556;28;20190;-67
2023/02/12 10:46:52;;;;;;;5.00;3.60;;;17.20;43.90;;;;;;4994171;28;20276;-67
2023/02/12 10:49:20;;;;;;;6.22;4.03;;;17.20;44.00;;;;;;4994167;28;20244;-67
2023/02/12 10:52:08;;;;;;;5.00;3.70;;;17.20;44.00;;;;;;4993872;28;20252;-67
2023/02/12 10:54:39;;;;;;;5.18;3.53;;;17.20;44.00;;;;;;4994278;28;20225;-67
2023/02/12 10:57:13;;;;;;;5.22;3.95;;;17.20;44.00;;;;;;4993834;28;20723;-67
2023/02/12 10:59:41;;;;;;;6.57;4.25;;;17.20;44.00;;;;;;4993585;28;20244;-67
2023/02/12 11:02:26;;;;;;;6.47;3.90;;;17.20;44.00;;;;;;4993937;28;20230;-67
2023/02/12 11:04:55;;;;;;;6.32;4.07;;;17.20;44.00;;;;;;4994079;28;20194;-67
2023/02/12 11:07:23;;;;;;;6.68;3.70;;;17.20;44.00;;;;;;4993689;28;20268;-67
2023/02/12 11:09:52;;;;;;;5.07;3.95;;;17.20;44.10;;;;;;4991816;28;20186;-67
2023/02/12 11:12:34;;;;;;;6.25;4.30;;;17.20;44.10;;;;;;4993899;28;20222;-67
2023/02/12 11:15:06;;;;;;;5.75;4.00;;;17.20;44.10;;;;;;4993666;28;20217;-67
2023/02/12 11:17:37;;;;;;;6.10;4.32;;;17.20;44.10;;;;;;5025782;28;20232;-67
2023/02/12 11:20:21;;;;;;;6.75;4.60;;;17.20;44.10;;;;;;5032610;28;20622;-67
2023/02/12 11:22:53;;;;;;;7.70;4.53;;;17.20;44.20;;;;;;5032955;28;20221;-67
2023/02/12 11:25:22;;;;;;;5.40;3.97;;;17.20;44.80;;;;;;5032662;28;20608;-67
2023/02/12 11:28:14;;;;;;;6.22;4.10;;;17.20;44.20;;;;;;5032693;28;20212;-67
2023/02/12 11:30:57;;;;;;;6.25;4.30;;;17.20;44.30;;;;;;5031566;28;20650;-67
2023/02/12 11:33:39;;;;;;;7.15;4.80;;;17.20;44.30;;;;;;5032605;28;20239;-67
2023/02/12 11:36:15;;;;;;;7.45;4.82;;;17.20;44.30;;;;;;5032652;28;20196;-67
2023/02/12 11:38:49;;;;;;;6.25;4.63;;;17.10;44.20;;;;;;5032540;28;20217;-67
2023/02/12 11:41:24;;;;;;;7.60;5.10;;;17.20;44.40;;;;;;5032253;28;20567;-67
2023/02/12 11:43:52;;;;;;;7.65;4.93;;;17.10;44.40;;;;;;5032316;28;20238;-67
2023/02/12 11:46:22;;;;;;;7.35;4.70;;;17.20;44.30;;;;;;5032204;28;20216;-67
2023/02/12 11:48:52;;;;;;;8.48;5.03;;;17.10;44.30;;;;;;5032212;28;20223;-67
2023/02/12 11:51:24;;;;;;;6.72;4.78;;;17.20;44.40;;;;;;5031984;28;20238;-67
2023/02/12 11:53:54;;;;;;;7.88;5.55;;;17.10;44.40;;;;;;5031580;28;20185;-67
2023/02/12 11:56:22;;;;;;;7.50;5.22;;;17.10;44.30;;;;;;5015194;28;20220;-67
2023/02/12 11:58:51;;;;;;;7.10;5.30;;;17.10;44.30;;;;;;5032501;28;20250;-67
2023/02/12 12:01:23;;;;;;;7.63;4.80;;;17.10;44.30;;;;;;5032034;28;20561;-67
2023/02/12 12:04:00;;;;;;;6.75;4.90;;;17.10;44.30;;;;;;5032421;28;20196;-67
2023/02/12 12:06:35;;;;;;;7.80;5.15;;;17.10;44.40;;;;;;5032088;28;20215;-67
2023/02/12 12:09:09;;;;;;;8.48;5.22;;;17.10;44.30;;;;;;5032375;28;20199;-67
2023/02/12 12:11:45;;;;;;;7.30;5.15;;;17.10;44.40;;;;;;5031996;28;20224;-67
2023/02/12 12:14:20;;;;;;;6.60;4.80;;;17.10;44.40;;;;;;5014795;28;20220;-68
2023/02/12 12:19:54;;;;;;;6.57;5.03;;;17.10;44.40;;;;;;5032215;28;20564;-67
2023/02/12 12:22:38;;;;;;;7.03;4.88;;;17.10;44.40;;;;;;5014604;28;20228;-67
2023/02/12 12:25:13;;;;;;;8.10;4.78;;;17.10;44.50;;;;;;5031913;28;20601;-67
2023/02/12 12:28:05;;;;;;;8.45;5.07;;;17.10;44.40;;;;;;4998982;28;20226;-67
2023/02/12 12:30:54;;;;;;;8.25;5.22;;;17.10;44.40;;;;;;5031787;28;20205;-67
2023/02/12 12:33:30;;;;;;;7.95;5.43;;;17.10;44.50;;;;;;5026748;28;20216;-67
2023/02/12 12:36:28;;;;;;;7.47;4.97;;;17.10;44.50;;;;;;5031693;28;20635;-67
2023/02/12 12:39:03;;;;;;;8.30;5.53;;;17.10;44.50;;;;;;5029253;28;20228;-67
2023/02/12 12:41:41;;;;;;;6.22;4.68;;;17.10;44.40;;;;;;5031692;28;20717;-67
2023/02/12 12:44:22;;;;;;;10.20;5.47;;;17.10;44.50;;;;;;5032074;28;20211;-67
2023/02/12 12:47:00;;;;;;;7.10;5.32;;;17.10;44.50;;;;;;5031951;28;20643;-67
2023/02/12 12:49:54;;;;;;;8.07;5.63;;;17.10;44.50;;;;;;5014281;28;20635;-67
2023/02/12 12:52:49;;;;;;;8.18;5.28;;;17.10;44.60;;;;;;5007058;28;20221;-67
2023/02/12 12:55:35;;;;;;;7.50;5.60;;;17.10;44.50;;;;;;5010432;28;20229;-67
2023/02/12 12:58:12;;;;;;;8.98;5.50;;;17.10;44.60;;;;;;4994644;28;20217;-67
2023/02/12 13:01:00;;;;;;;7.50;5.00;;;17.10;44.50;;;;;;5012194;28;20197;-67
2023/02/12 13:04:04;;;;;;;7.72;5.28;;;17.10;44.60;;;;;;5012520;28;20255;-67
2023/02/12 13:06:49;;;;;;;7.03;5.03;;;17.10;44.60;;;;;;5014206;28;20220;-67
2023/02/12 13:09:38;;;;;;;8.93;5.80;;;17.10;44.60;;;;;;5015669;28;20255;-67
2023/02/12 13:12:23;;;;;;;6.65;5.22;;;17.10;44.60;;;;;;5032680;28;20559;-67
2023/02/12 13:14:59;;;;;;;7.78;5.45;;;17.10;44.60;;;;;;5017579;28;20259;-67
2023/02/12 13:17:30;;;;;;;6.97;4.95;;;17.10;44.70;;;;;;5034950;28;20235;-67
2023/02/12 13:20:06;;;;;;;6.85;5.00;;;17.10;44.70;;;;;;5035223;28;20250;-67